sensor_id;sensor_type;location;lat;lon;timestamp;temperature;humidity
11597;DHT22;5854;48.072;16.286;2022-08-04T00:01:02;24.60;38.90
11597;DHT22;5854;48.072;16.286;2022-08-04T00:03:39;24.70;46.50
11597;DHT22;5854;48.072;16.286;2022-08-04T00:06:15;25.30;44.60
11597;DHT22;5854;48.072;16.286;2022-08-04T00:08:45;25.50;44.40
11597;DHT22;5854;48.072;16.286;2022-08-04T00:11:18;25.40;38.60
11597;DHT22;5854;48.072;16.286;2022-08-04T00:13:51;25.40;43.90
11597;DHT22;5854;48.072;16.286;2022-08-04T00:16:22;25.30;44.60
11597;DHT22;5854;48.072;16.286;2022-08-04T00:18:55;25.50;44.60
11597;DHT22;5854;48.072;16.286;2022-08-04T00:21:24;25.50;39.00
11597;DHT22;5854;48.072;16.286;2022-08-04T00:23:54;25.10;39.50
11597;DHT22;5854;48.072;16.286;2022-08-04T00:26:22;25.20;43.00
11597;DHT22;5854;48.072;16.286;2022-08-04T00:28:49;24.90;41.10
11597;DHT22;5854;48.072;16.286;2022-08-04T00:31:17;24.70;45.70
11597;DHT22;5854;48.072;16.286;2022-08-04T00:33:45;24.90;45.70
11597;DHT22;5854;48.072;16.286;2022-08-04T00:36:14;24.90;39.90
11597;DHT22;5854;48.072;16.286;2022-08-04T00:38:43;24.80;42.70
11597;DHT22;5854;48.072;16.286;2022-08-04T00:41:18;24.80;42.20
11597;DHT22;5854;48.072;16.286;2022-08-04T00:44:07;24.70;42.80
11597;DHT22;5854;48.072;16.286;2022-08-04T00:50:00;24.30;45.60
11597;DHT22;5854;48.072;16.286;2022-08-04T00:52:49;24.70;45.00
11597;DHT22;5854;48.072;16.286;2022-08-04T00:55:43;24.80;45.30
11597;DHT22;5854;48.072;16.286;2022-08-04T00:58:42;24.60;43.50
11597;DHT22;5854;48.072;16.286;2022-08-04T01:01:28;24.60;43.60
11597;DHT22;5854;48.072;16.286;2022-08-04T01:04:03;24.70;45.30
11597;DHT22;5854;48.072;16.286;2022-08-04T01:06:39;24.40;39.20
11597;DHT22;5854;48.072;16.286;2022-08-04T01:09:26;24.10;47.30
11597;DHT22;5854;48.072;16.286;2022-08-04T01:12:15;24.20;46.20
11597;DHT22;5854;48.072;16.286;2022-08-04T01:15:04;24.20;44.00
11597;DHT22;5854;48.072;16.286;2022-08-04T01:17:54;24.20;46.70
11597;DHT22;5854;48.072;16.286;2022-08-04T01:20:28;24.40;46.70
11597;DHT22;5854;48.072;16.286;2022-08-04T01:23:21;24.40;46.20
11597;DHT22;5854;48.072;16.286;2022-08-04T01:26:32;24.60;44.80
11597;DHT22;5854;48.072;16.286;2022-08-04T01:29:08;24.40;45.50
11597;DHT22;5854;48.072;16.286;2022-08-04T01:31:55;24.50;46.30
11597;DHT22;5854;48.072;16.286;2022-08-04T01:34:29;24.60;45.60
11597;DHT22;5854;48.072;16.286;2022-08-04T01:37:02;24.60;45.50
11597;DHT22;5854;48.072;16.286;2022-08-04T01:39:49;24.60;45.60
11597;DHT22;5854;48.072;16.286;2022-08-04T01:42:25;24.40;43.50
11597;DHT22;5854;48.072;16.286;2022-08-04T01:44:54;24.20;42.20
11597;DHT22;5854;48.072;16.286;2022-08-04T01:47:28;24.00;44.60
11597;DHT22;5854;48.072;16.286;2022-08-04T01:49:58;24.10;46.80
11597;DHT22;5854;48.072;16.286;2022-08-04T01:52:37;24.00;43.80
11597;DHT22;5854;48.072;16.286;2022-08-04T01:55:08;23.80;44.40
11597;DHT22;5854;48.072;16.286;2022-08-04T01:57:40;24.00;45.60
11597;DHT22;5854;48.072;16.286;2022-08-04T02:00:11;24.10;46.20
11597;DHT22;5854;48.072;16.286;2022-08-04T02:02:39;24.10;42.40
11597;DHT22;5854;48.072;16.286;2022-08-04T02:05:09;23.80;46.40
11597;DHT22;5854;48.072;16.286;2022-08-04T02:07:46;23.70;47.00
11597;DHT22;5854;48.072;16.286;2022-08-04T02:10:28;23.80;46.50
11597;DHT22;5854;48.072;16.286;2022-08-04T02:13:09;23.90;47.10
11597;DHT22;5854;48.072;16.286;2022-08-04T02:15:52;24.10;45.40
11597;DHT22;5854;48.072;16.286;2022-08-04T02:18:28;24.10;46.20
11597;DHT22;5854;48.072;16.286;2022-08-04T02:20:58;24.10;43.40
11597;DHT22;5854;48.072;16.286;2022-08-04T02:23:35;23.90;46.10
11597;DHT22;5854;48.072;16.286;2022-08-04T02:26:04;23.90;45.80
11597;DHT22;5854;48.072;16.286;2022-08-04T02:28:36;23.60;45.30
11597;DHT22;5854;48.072;16.286;2022-08-04T02:31:17;23.30;41.90
11597;DHT22;5854;48.072;16.286;2022-08-04T02:33:55;23.40;47.00
11597;DHT22;5854;48.072;16.286;2022-08-04T02:36:30;23.50;46.90
11597;DHT22;5854;48.072;16.286;2022-08-04T02:39:03;23.60;43.50
11597;DHT22;5854;48.072;16.286;2022-08-04T02:41:32;23.40;43.30
11597;DHT22;5854;48.072;16.286;2022-08-04T02:44:03;23.60;46.60
11597;DHT22;5854;48.072;16.286;2022-08-04T02:46:34;23.60;45.40
11597;DHT22;5854;48.072;16.286;2022-08-04T02:49:05;23.60;46.80
11597;DHT22;5854;48.072;16.286;2022-08-04T02:51:35;23.60;45.20
11597;DHT22;5854;48.072;16.286;2022-08-04T02:54:04;23.70;46.30
11597;DHT22;5854;48.072;16.286;2022-08-04T02:56:35;23.60;45.60
11597;DHT22;5854;48.072;16.286;2022-08-04T02:59:05;23.50;43.50
11597;DHT22;5854;48.072;16.286;2022-08-04T03:01:35;23.20;42.40
11597;DHT22;5854;48.072;16.286;2022-08-04T03:04:14;23.20;46.40
11597;DHT22;5854;48.072;16.286;2022-08-04T03:07:34;23.30;46.60
11597;DHT22;5854;48.072;16.286;2022-08-04T03:10:42;23.40;46.10
11597;DHT22;5854;48.072;16.286;2022-08-04T03:17:44;23.20;47.50
11597;DHT22;5854;48.072;16.286;2022-08-04T03:24:11;23.00;45.10
11597;DHT22;5854;48.072;16.286;2022-08-04T03:27:10;23.10;43.80
11597;DHT22;5854;48.072;16.286;2022-08-04T03:30:01;23.00;47.40
11597;DHT22;5854;48.072;16.286;2022-08-04T03:33:04;23.10;45.90
11597;DHT22;5854;48.072;16.286;2022-08-04T03:45:30;22.90;47.80
11597;DHT22;5854;48.072;16.286;2022-08-04T03:48:51;22.90;47.30
11597;DHT22;5854;48.072;16.286;2022-08-04T03:51:33;22.60;48.10
11597;DHT22;5854;48.072;16.286;2022-08-04T03:54:58;22.50;48.20
11597;DHT22;5854;48.072;16.286;2022-08-04T03:57:59;22.80;47.90
11597;DHT22;5854;48.072;16.286;2022-08-04T04:00:48;22.60;44.40
11597;DHT22;5854;48.072;16.286;2022-08-04T04:03:42;22.30;46.30
11597;DHT22;5854;48.072;16.286;2022-08-04T04:06:52;22.60;48.00
11597;DHT22;5854;48.072;16.286;2022-08-04T04:09:52;22.60;48.00
11597;DHT22;5854;48.072;16.286;2022-08-04T04:19:06;22.00;48.50
11597;DHT22;5854;48.072;16.286;2022-08-04T04:21:57;22.40;48.60
11597;DHT22;5854;48.072;16.286;2022-08-04T04:24:53;22.30;48.80
11597;DHT22;5854;48.072;16.286;2022-08-04T04:27:39;22.40;48.00
11597;DHT22;5854;48.072;16.286;2022-08-04T04:30:12;22.60;46.80
11597;DHT22;5854;48.072;16.286;2022-08-04T04:33:06;22.60;46.40
11597;DHT22;5854;48.072;16.286;2022-08-04T04:36:02;22.40;47.20
11597;DHT22;5854;48.072;16.286;2022-08-04T04:38:46;22.20;47.80
11597;DHT22;5854;48.072;16.286;2022-08-04T04:41:35;21.90;48.10
11597;DHT22;5854;48.072;16.286;2022-08-04T04:44:20;21.90;49.20
11597;DHT22;5854;48.072;16.286;2022-08-04T04:47:05;22.10;48.90
11597;DHT22;5854;48.072;16.286;2022-08-04T04:49:43;22.30;47.20
11597;DHT22;5854;48.072;16.286;2022-08-04T04:52:23;22.40;48.20
11597;DHT22;5854;48.072;16.286;2022-08-04T04:55:01;22.60;47.40
11597;DHT22;5854;48.072;16.286;2022-08-04T04:57:36;22.60;47.30
11597;DHT22;5854;48.072;16.286;2022-08-04T05:00:06;22.70;47.10
11597;DHT22;5854;48.072;16.286;2022-08-04T05:06:06;22.40;47.80
11597;DHT22;5854;48.072;16.286;2022-08-04T05:08:59;22.40;47.10
11597;DHT22;5854;48.072;16.286;2022-08-04T05:15:03;22.60;47.30
11597;DHT22;5854;48.072;16.286;2022-08-04T05:17:37;22.40;47.30
11597;DHT22;5854;48.072;16.286;2022-08-04T05:20:08;22.50;46.70
11597;DHT22;5854;48.072;16.286;2022-08-04T05:22:41;22.60;46.30
11597;DHT22;5854;48.072;16.286;2022-08-04T05:25:18;22.70;46.90
11597;DHT22;5854;48.072;16.286;2022-08-04T05:27:55;22.80;46.50
11597;DHT22;5854;48.072;16.286;2022-08-04T05:30:26;23.10;46.20
11597;DHT22;5854;48.072;16.286;2022-08-04T05:32:57;23.10;46.50
11597;DHT22;5854;48.072;16.286;2022-08-04T05:35:30;23.10;46.10
11597;DHT22;5854;48.072;16.286;2022-08-04T05:38:00;23.10;45.50
11597;DHT22;5854;48.072;16.286;2022-08-04T05:40:30;23.20;45.40
11597;DHT22;5854;48.072;16.286;2022-08-04T05:42:58;23.50;44.30
11597;DHT22;5854;48.072;16.286;2022-08-04T05:45:26;23.50;44.50
11597;DHT22;5854;48.072;16.286;2022-08-04T05:47:54;23.30;44.70
11597;DHT22;5854;48.072;16.286;2022-08-04T05:50:22;23.30;44.50
11597;DHT22;5854;48.072;16.286;2022-08-04T05:52:51;23.60;44.10
11597;DHT22;5854;48.072;16.286;2022-08-04T05:55:20;24.40;42.20
11597;DHT22;5854;48.072;16.286;2022-08-04T05:57:49;24.20;41.90
11597;DHT22;5854;48.072;16.286;2022-08-04T06:00:17;23.90;43.20
11597;DHT22;5854;48.072;16.286;2022-08-04T06:02:46;23.70;43.70
11597;DHT22;5854;48.072;16.286;2022-08-04T06:05:15;23.60;42.00
11597;DHT22;5854;48.072;16.286;2022-08-04T06:07:43;23.60;42.70
11597;DHT22;5854;48.072;16.286;2022-08-04T06:10:11;23.60;43.70
11597;DHT22;5854;48.072;16.286;2022-08-04T06:12:43;23.60;43.90
11597;DHT22;5854;48.072;16.286;2022-08-04T06:15:17;23.60;43.90
11597;DHT22;5854;48.072;16.286;2022-08-04T06:17:48;23.70;43.80
11597;DHT22;5854;48.072;16.286;2022-08-04T06:20:17;23.90;43.60
11597;DHT22;5854;48.072;16.286;2022-08-04T06:22:48;24.00;43.30
11597;DHT22;5854;48.072;16.286;2022-08-04T06:25:21;24.20;43.20
11597;DHT22;5854;48.072;16.286;2022-08-04T06:27:50;24.40;42.20
11597;DHT22;5854;48.072;16.286;2022-08-04T06:30:19;24.60;41.20
11597;DHT22;5854;48.072;16.286;2022-08-04T06:32:51;25.40;39.70
11597;DHT22;5854;48.072;16.286;2022-08-04T06:35:22;26.10;38.60
11597;DHT22;5854;48.072;16.286;2022-08-04T06:37:51;26.30;35.10
11597;DHT22;5854;48.072;16.286;2022-08-04T06:40:21;27.00;35.00
11597;DHT22;5854;48.072;16.286;2022-08-04T06:42:50;27.40;34.40
11597;DHT22;5854;48.072;16.286;2022-08-04T06:45:20;27.70;34.00
11597;DHT22;5854;48.072;16.286;2022-08-04T06:47:48;28.20;33.70
11597;DHT22;5854;48.072;16.286;2022-08-04T06:50:15;28.70;31.80
11597;DHT22;5854;48.072;16.286;2022-08-04T06:52:44;28.60;31.60
11597;DHT22;5854;48.072;16.286;2022-08-04T06:55:11;29.10;32.90
11597;DHT22;5854;48.072;16.286;2022-08-04T06:57:40;29.40;32.10
11597;DHT22;5854;48.072;16.286;2022-08-04T07:00:10;29.30;30.20
11597;DHT22;5854;48.072;16.286;2022-08-04T07:02:43;29.90;30.50
11597;DHT22;5854;48.072;16.286;2022-08-04T07:05:11;30.30;30.30
11597;DHT22;5854;48.072;16.286;2022-08-04T07:07:39;30.50;30.00
11597;DHT22;5854;48.072;16.286;2022-08-04T07:10:08;30.60;29.50
11597;DHT22;5854;48.072;16.286;2022-08-04T07:12:36;30.60;28.50
11597;DHT22;5854;48.072;16.286;2022-08-04T07:15:04;30.40;28.30
11597;DHT22;5854;48.072;16.286;2022-08-04T07:17:34;30.80;29.00
11597;DHT22;5854;48.072;16.286;2022-08-04T07:20:04;31.00;28.00
11597;DHT22;5854;48.072;16.286;2022-08-04T07:22:31;30.80;27.80
11597;DHT22;5854;48.072;16.286;2022-08-04T07:24:59;31.00;28.60
11597;DHT22;5854;48.072;16.286;2022-08-04T07:27:26;30.80;28.50
11597;DHT22;5854;48.072;16.286;2022-08-04T07:29:54;31.10;29.30
11597;DHT22;5854;48.072;16.286;2022-08-04T07:32:22;31.80;27.40
11597;DHT22;5854;48.072;16.286;2022-08-04T07:34:50;31.90;27.20
11597;DHT22;5854;48.072;16.286;2022-08-04T07:37:19;32.30;27.00
11597;DHT22;5854;48.072;16.286;2022-08-04T07:39:46;32.70;26.40
11597;DHT22;5854;48.072;16.286;2022-08-04T07:42:17;33.00;26.70
11597;DHT22;5854;48.072;16.286;2022-08-04T07:44:45;33.00;26.50
11597;DHT22;5854;48.072;16.286;2022-08-04T07:47:13;32.80;25.70
11597;DHT22;5854;48.072;16.286;2022-08-04T07:49:41;32.60;26.40
11597;DHT22;5854;48.072;16.286;2022-08-04T07:52:08;32.10;27.00
11597;DHT22;5854;48.072;16.286;2022-08-04T07:54:38;32.50;26.60
11597;DHT22;5854;48.072;16.286;2022-08-04T07:57:06;32.80;26.70
11597;DHT22;5854;48.072;16.286;2022-08-04T07:59:34;33.00;26.10
11597;DHT22;5854;48.072;16.286;2022-08-04T08:02:02;33.40;26.40
11597;DHT22;5854;48.072;16.286;2022-08-04T08:04:29;33.70;25.80
11597;DHT22;5854;48.072;16.286;2022-08-04T08:06:57;34.30;26.10
11597;DHT22;5854;48.072;16.286;2022-08-04T08:09:24;34.30;25.50
11597;DHT22;5854;48.072;16.286;2022-08-04T08:11:53;32.70;26.00
11597;DHT22;5854;48.072;16.286;2022-08-04T08:14:22;30.80;28.10
11597;DHT22;5854;48.072;16.286;2022-08-04T08:16:50;29.80;31.30
11597;DHT22;5854;48.072;16.286;2022-08-04T08:19:17;28.90;30.40
11597;DHT22;5854;48.072;16.286;2022-08-04T08:21:46;28.50;31.30
11597;DHT22;5854;48.072;16.286;2022-08-04T08:24:14;28.30;33.00
11597;DHT22;5854;48.072;16.286;2022-08-04T08:26:42;28.20;32.80
11597;DHT22;5854;48.072;16.286;2022-08-04T08:29:11;28.20;32.20
11597;DHT22;5854;48.072;16.286;2022-08-04T08:31:39;28.40;33.30
11597;DHT22;5854;48.072;16.286;2022-08-04T08:34:10;28.40;32.90
11597;DHT22;5854;48.072;16.286;2022-08-04T08:36:42;28.30;33.70
11597;DHT22;5854;48.072;16.286;2022-08-04T08:39:15;28.30;33.40
11597;DHT22;5854;48.072;16.286;2022-08-04T08:42:15;28.40;33.40
11597;DHT22;5854;48.072;16.286;2022-08-04T08:45:21;28.60;32.50
11597;DHT22;5854;48.072;16.286;2022-08-04T08:48:11;28.60;30.70
11597;DHT22;5854;48.072;16.286;2022-08-04T08:53:50;29.00;33.10
11597;DHT22;5854;48.072;16.286;2022-08-04T08:56:45;28.90;31.10
11597;DHT22;5854;48.072;16.286;2022-08-04T08:59:49;28.90;31.50
11597;DHT22;5854;48.072;16.286;2022-08-04T09:08:59;29.10;30.90
11597;DHT22;5854;48.072;16.286;2022-08-04T09:11:40;29.20;30.90
11597;DHT22;5854;48.072;16.286;2022-08-04T09:14:17;29.10;32.30
11597;DHT22;5854;48.072;16.286;2022-08-04T09:16:51;29.20;33.00
11597;DHT22;5854;48.072;16.286;2022-08-04T09:19:26;29.40;32.70
11597;DHT22;5854;48.072;16.286;2022-08-04T09:22:00;29.60;31.90
11597;DHT22;5854;48.072;16.286;2022-08-04T09:24:36;29.60;30.60
11597;DHT22;5854;48.072;16.286;2022-08-04T09:27:18;29.70;31.70
11597;DHT22;5854;48.072;16.286;2022-08-04T09:29:52;29.70;30.80
11597;DHT22;5854;48.072;16.286;2022-08-04T09:32:33;29.50;31.10
11597;DHT22;5854;48.072;16.286;2022-08-04T09:35:17;29.50;30.70
11597;DHT22;5854;48.072;16.286;2022-08-04T09:37:59;29.50;31.20
11597;DHT22;5854;48.072;16.286;2022-08-04T09:40:44;29.70;29.80
11597;DHT22;5854;48.072;16.286;2022-08-04T09:43:25;29.90;29.10
11597;DHT22;5854;48.072;16.286;2022-08-04T09:46:01;30.10;29.90
11597;DHT22;5854;48.072;16.286;2022-08-04T09:48:36;30.10;30.50
11597;DHT22;5854;48.072;16.286;2022-08-04T09:51:13;30.20;28.10
11597;DHT22;5854;48.072;16.286;2022-08-04T09:54:04;30.20;27.80
11597;DHT22;5854;48.072;16.286;2022-08-04T09:56:38;30.20;30.40
11597;DHT22;5854;48.072;16.286;2022-08-04T09:59:17;30.40;28.30
11597;DHT22;5854;48.072;16.286;2022-08-04T10:01:52;30.40;27.60
11597;DHT22;5854;48.072;16.286;2022-08-04T10:04:22;30.20;25.90
11597;DHT22;5854;48.072;16.286;2022-08-04T10:07:27;30.00;27.30
11597;DHT22;5854;48.072;16.286;2022-08-04T10:10:11;30.20;27.30
11597;DHT22;5854;48.072;16.286;2022-08-04T10:13:04;30.10;27.10
11597;DHT22;5854;48.072;16.286;2022-08-04T10:15:44;30.40;26.40
11597;DHT22;5854;48.072;16.286;2022-08-04T10:18:27;30.40;26.90
11597;DHT22;5854;48.072;16.286;2022-08-04T10:21:11;30.70;25.80
11597;DHT22;5854;48.072;16.286;2022-08-04T10:23:59;30.50;27.90
11597;DHT22;5854;48.072;16.286;2022-08-04T10:26:40;30.60;26.20
11597;DHT22;5854;48.072;16.286;2022-08-04T10:29:13;30.70;26.30
11597;DHT22;5854;48.072;16.286;2022-08-04T10:32:03;30.60;26.90
11597;DHT22;5854;48.072;16.286;2022-08-04T10:34:40;30.40;26.50
11597;DHT22;5854;48.072;16.286;2022-08-04T10:37:17;30.40;26.60
11597;DHT22;5854;48.072;16.286;2022-08-04T10:39:55;30.40;26.60
11597;DHT22;5854;48.072;16.286;2022-08-04T10:42:52;30.50;29.80
11597;DHT22;5854;48.072;16.286;2022-08-04T10:45:28;30.50;26.20
11597;DHT22;5854;48.072;16.286;2022-08-04T10:48:05;30.60;27.20
11597;DHT22;5854;48.072;16.286;2022-08-04T10:50:41;30.50;27.50
11597;DHT22;5854;48.072;16.286;2022-08-04T10:53:18;30.50;26.80
11597;DHT22;5854;48.072;16.286;2022-08-04T10:55:53;30.60;27.50
11597;DHT22;5854;48.072;16.286;2022-08-04T10:58:27;30.40;28.00
11597;DHT22;5854;48.072;16.286;2022-08-04T11:01:11;30.40;28.70
11597;DHT22;5854;48.072;16.286;2022-08-04T11:03:48;30.40;26.40
11597;DHT22;5854;48.072;16.286;2022-08-04T11:06:20;30.40;28.40
11597;DHT22;5854;48.072;16.286;2022-08-04T11:08:52;30.60;27.50
11597;DHT22;5854;48.072;16.286;2022-08-04T11:11:23;30.70;27.70
11597;DHT22;5854;48.072;16.286;2022-08-04T11:14:02;30.50;28.70
11597;DHT22;5854;48.072;16.286;2022-08-04T11:16:35;30.70;28.30
11597;DHT22;5854;48.072;16.286;2022-08-04T11:19:14;30.70;27.90
11597;DHT22;5854;48.072;16.286;2022-08-04T11:21:51;30.80;27.80
11597;DHT22;5854;48.072;16.286;2022-08-04T11:24:24;30.80;27.50
11597;DHT22;5854;48.072;16.286;2022-08-04T11:26:57;30.80;27.80
11597;DHT22;5854;48.072;16.286;2022-08-04T11:29:30;30.90;27.60
11597;DHT22;5854;48.072;16.286;2022-08-04T11:32:03;31.10;28.50
11597;DHT22;5854;48.072;16.286;2022-08-04T11:34:34;31.10;27.20
11597;DHT22;5854;48.072;16.286;2022-08-04T11:37:08;30.80;27.00
11597;DHT22;5854;48.072;16.286;2022-08-04T11:39:43;30.80;26.90
11597;DHT22;5854;48.072;16.286;2022-08-04T11:42:19;30.90;29.90
11597;DHT22;5854;48.072;16.286;2022-08-04T11:44:50;30.80;28.30
11597;DHT22;5854;48.072;16.286;2022-08-04T11:47:27;30.80;28.00
11597;DHT22;5854;48.072;16.286;2022-08-04T11:50:02;31.00;29.80
11597;DHT22;5854;48.072;16.286;2022-08-04T11:52:32;31.20;29.60
11597;DHT22;5854;48.072;16.286;2022-08-04T11:55:03;31.00;29.50
11597;DHT22;5854;48.072;16.286;2022-08-04T11:57:34;31.20;28.00
11597;DHT22;5854;48.072;16.286;2022-08-04T12:00:04;31.10;29.60
11597;DHT22;5854;48.072;16.286;2022-08-04T12:02:55;31.10;27.50
11597;DHT22;5854;48.072;16.286;2022-08-04T12:05:31;31.00;29.10
11597;DHT22;5854;48.072;16.286;2022-08-04T12:08:16;31.10;28.20
11597;DHT22;5854;48.072;16.286;2022-08-04T12:10:59;31.10;30.70
11597;DHT22;5854;48.072;16.286;2022-08-04T12:13:37;30.90;26.90
11597;DHT22;5854;48.072;16.286;2022-08-04T12:16:14;30.90;27.50
11597;DHT22;5854;48.072;16.286;2022-08-04T12:18:48;30.90;27.80
11597;DHT22;5854;48.072;16.286;2022-08-04T12:21:24;31.10;28.20
11597;DHT22;5854;48.072;16.286;2022-08-04T12:23:57;31.10;28.10
11597;DHT22;5854;48.072;16.286;2022-08-04T12:26:31;31.30;27.60
11597;DHT22;5854;48.072;16.286;2022-08-04T12:29:05;31.20;29.90
11597;DHT22;5854;48.072;16.286;2022-08-04T12:31:39;31.20;29.20
11597;DHT22;5854;48.072;16.286;2022-08-04T12:34:14;31.20;28.80
11597;DHT22;5854;48.072;16.286;2022-08-04T12:36:47;31.20;28.90
11597;DHT22;5854;48.072;16.286;2022-08-04T12:39:21;31.40;28.30
11597;DHT22;5854;48.072;16.286;2022-08-04T12:41:57;31.50;27.30
11597;DHT22;5854;48.072;16.286;2022-08-04T12:44:32;31.60;27.20
11597;DHT22;5854;48.072;16.286;2022-08-04T12:47:02;32.00;27.60
11597;DHT22;5854;48.072;16.286;2022-08-04T12:49:31;33.10;29.00
11597;DHT22;5854;48.072;16.286;2022-08-04T12:52:04;34.40;23.60
11597;DHT22;5854;48.072;16.286;2022-08-04T12:54:33;35.20;23.70
11597;DHT22;5854;48.072;16.286;2022-08-04T12:57:03;36.00;23.40
11597;DHT22;5854;48.072;16.286;2022-08-04T12:59:38;36.30;23.40
11597;DHT22;5854;48.072;16.286;2022-08-04T13:02:10;36.50;24.40
11597;DHT22;5854;48.072;16.286;2022-08-04T13:04:42;36.80;22.30
11597;DHT22;5854;48.072;16.286;2022-08-04T13:07:15;37.10;22.90
11597;DHT22;5854;48.072;16.286;2022-08-04T13:09:45;36.90;22.80
11597;DHT22;5854;48.072;16.286;2022-08-04T13:12:14;37.20;22.60
11597;DHT22;5854;48.072;16.286;2022-08-04T13:14:48;37.00;21.30
11597;DHT22;5854;48.072;16.286;2022-08-04T13:17:16;37.10;22.40
11597;DHT22;5854;48.072;16.286;2022-08-04T13:19:46;37.00;21.00
11597;DHT22;5854;48.072;16.286;2022-08-04T13:22:22;37.20;21.90
11597;DHT22;5854;48.072;16.286;2022-08-04T13:24:51;37.00;21.40
11597;DHT22;5854;48.072;16.286;2022-08-04T13:27:19;36.80;20.60
11597;DHT22;5854;48.072;16.286;2022-08-04T13:29:51;36.70;21.80
11597;DHT22;5854;48.072;16.286;2022-08-04T13:32:22;37.00;20.90
11597;DHT22;5854;48.072;16.286;2022-08-04T13:34:53;37.10;21.20
11597;DHT22;5854;48.072;16.286;2022-08-04T13:37:24;36.90;21.20
11597;DHT22;5854;48.072;16.286;2022-08-04T13:39:57;36.80;20.80
11597;DHT22;5854;48.072;16.286;2022-08-04T13:42:25;36.40;21.10
11597;DHT22;5854;48.072;16.286;2022-08-04T13:44:56;36.30;25.60
11597;DHT22;5854;48.072;16.286;2022-08-04T13:47:28;35.70;21.10
11597;DHT22;5854;48.072;16.286;2022-08-04T13:50:13;35.90;23.60
11597;DHT22;5854;48.072;16.286;2022-08-04T13:52:43;35.70;22.50
11597;DHT22;5854;48.072;16.286;2022-08-04T13:55:22;35.20;23.50
11597;DHT22;5854;48.072;16.286;2022-08-04T13:57:57;34.90;23.00
11597;DHT22;5854;48.072;16.286;2022-08-04T14:00:40;34.80;23.90
11597;DHT22;5854;48.072;16.286;2022-08-04T14:03:17;34.30;25.00
11597;DHT22;5854;48.072;16.286;2022-08-04T14:06:04;34.10;24.80
11597;DHT22;5854;48.072;16.286;2022-08-04T14:08:36;33.60;23.90
11597;DHT22;5854;48.072;16.286;2022-08-04T14:11:11;33.60;25.90
11597;DHT22;5854;48.072;16.286;2022-08-04T14:13:39;33.60;24.00
11597;DHT22;5854;48.072;16.286;2022-08-04T14:16:15;33.50;24.90
11597;DHT22;5854;48.072;16.286;2022-08-04T14:18:43;33.50;26.80
11597;DHT22;5854;48.072;16.286;2022-08-04T14:21:12;33.50;27.10
11597;DHT22;5854;48.072;16.286;2022-08-04T14:23:43;33.60;28.00
11597;DHT22;5854;48.072;16.286;2022-08-04T14:26:21;33.60;24.80
11597;DHT22;5854;48.072;16.286;2022-08-04T14:28:51;33.50;25.10
11597;DHT22;5854;48.072;16.286;2022-08-04T14:31:22;33.50;25.80
11597;DHT22;5854;48.072;16.286;2022-08-04T14:33:52;33.30;25.10
11597;DHT22;5854;48.072;16.286;2022-08-04T14:36:19;33.30;24.60
11597;DHT22;5854;48.072;16.286;2022-08-04T14:38:50;33.50;27.20
11597;DHT22;5854;48.072;16.286;2022-08-04T14:41:21;33.60;25.10
11597;DHT22;5854;48.072;16.286;2022-08-04T14:43:51;33.70;24.00
11597;DHT22;5854;48.072;16.286;2022-08-04T14:46:21;33.60;28.40
11597;DHT22;5854;48.072;16.286;2022-08-04T14:49:06;33.80;28.10
11597;DHT22;5854;48.072;16.286;2022-08-04T14:51:39;33.70;24.30
11597;DHT22;5854;48.072;16.286;2022-08-04T14:54:12;33.70;26.20
11597;DHT22;5854;48.072;16.286;2022-08-04T14:56:41;33.70;28.80
11597;DHT22;5854;48.072;16.286;2022-08-04T14:59:18;33.60;26.00
11597;DHT22;5854;48.072;16.286;2022-08-04T15:01:47;33.60;26.00
11597;DHT22;5854;48.072;16.286;2022-08-04T15:04:15;33.70;27.20
11597;DHT22;5854;48.072;16.286;2022-08-04T15:06:43;33.70;26.70
11597;DHT22;5854;48.072;16.286;2022-08-04T15:09:11;33.80;25.40
11597;DHT22;5854;48.072;16.286;2022-08-04T15:11:38;33.60;26.00
11597;DHT22;5854;48.072;16.286;2022-08-04T15:14:05;33.60;23.70
11597;DHT22;5854;48.072;16.286;2022-08-04T15:16:33;33.40;25.40
11597;DHT22;5854;48.072;16.286;2022-08-04T15:19:01;33.30;25.10
11597;DHT22;5854;48.072;16.286;2022-08-04T15:21:29;33.10;25.00
11597;DHT22;5854;48.072;16.286;2022-08-04T15:23:57;33.00;28.00
11597;DHT22;5854;48.072;16.286;2022-08-04T15:26:34;33.10;25.50
11597;DHT22;5854;48.072;16.286;2022-08-04T15:29:08;33.10;25.30
11597;DHT22;5854;48.072;16.286;2022-08-04T15:31:39;33.00;26.20
11597;DHT22;5854;48.072;16.286;2022-08-04T15:34:08;33.10;27.30
11597;DHT22;5854;48.072;16.286;2022-08-04T15:36:46;33.10;25.90
11597;DHT22;5854;48.072;16.286;2022-08-04T15:39:25;32.90;25.10
11597;DHT22;5854;48.072;16.286;2022-08-04T15:42:12;32.90;24.90
11597;DHT22;5854;48.072;16.286;2022-08-04T15:45:16;32.90;25.60
11597;DHT22;5854;48.072;16.286;2022-08-04T15:51:12;33.10;27.20
11597;DHT22;5854;48.072;16.286;2022-08-04T15:54:19;33.30;25.80
11597;DHT22;5854;48.072;16.286;2022-08-04T15:56:48;33.40;25.50
11597;DHT22;5854;48.072;16.286;2022-08-04T15:59:55;33.30;25.60
11597;DHT22;5854;48.072;16.286;2022-08-04T16:02:48;33.50;26.00
11597;DHT22;5854;48.072;16.286;2022-08-04T16:05:32;33.50;25.70
11597;DHT22;5854;48.072;16.286;2022-08-04T16:08:15;33.10;26.80
11597;DHT22;5854;48.072;16.286;2022-08-04T16:10:47;33.00;30.50
11597;DHT22;5854;48.072;16.286;2022-08-04T16:13:17;33.30;27.60
11597;DHT22;5854;48.072;16.286;2022-08-04T16:15:47;33.40;25.00
11597;DHT22;5854;48.072;16.286;2022-08-04T16:18:37;33.30;25.70
11597;DHT22;5854;48.072;16.286;2022-08-04T16:21:15;33.10;26.00
11597;DHT22;5854;48.072;16.286;2022-08-04T16:24:07;33.20;25.50
11597;DHT22;5854;48.072;16.286;2022-08-04T16:26:45;33.40;25.70
11597;DHT22;5854;48.072;16.286;2022-08-04T16:29:40;33.30;27.60
11597;DHT22;5854;48.072;16.286;2022-08-04T16:32:19;33.40;30.70
11597;DHT22;5854;48.072;16.286;2022-08-04T16:34:52;33.50;26.00
11597;DHT22;5854;48.072;16.286;2022-08-04T16:37:23;33.50;26.30
11597;DHT22;5854;48.072;16.286;2022-08-04T16:43:01;33.50;25.90
11597;DHT22;5854;48.072;16.286;2022-08-04T16:45:50;33.50;25.70
11597;DHT22;5854;48.072;16.286;2022-08-04T16:48:20;33.20;28.50
11597;DHT22;5854;48.072;16.286;2022-08-04T16:50:51;33.20;27.70
11597;DHT22;5854;48.072;16.286;2022-08-04T16:53:21;33.30;25.90
11597;DHT22;5854;48.072;16.286;2022-08-04T16:55:54;33.30;25.70
11597;DHT22;5854;48.072;16.286;2022-08-04T16:58:26;33.10;26.30
11597;DHT22;5854;48.072;16.286;2022-08-04T17:00:55;32.90;25.50
11597;DHT22;5854;48.072;16.286;2022-08-04T17:03:23;33.10;29.90
11597;DHT22;5854;48.072;16.286;2022-08-04T17:06:04;33.20;28.30
11597;DHT22;5854;48.072;16.286;2022-08-04T17:08:35;33.10;27.20
11597;DHT22;5854;48.072;16.286;2022-08-04T17:11:05;33.00;25.70
11597;DHT22;5854;48.072;16.286;2022-08-04T17:13:36;32.90;25.90
11597;DHT22;5854;48.072;16.286;2022-08-04T17:16:05;32.70;26.90